Map

Track Data

SID SEASON NUMBER BASIN SUBBASIN NAME ISO_TIME NATURE LAT LON WMO_WIND WMO_PRES WMO_AGENCY TRACK_TYPE DIST2LAND LANDFALL IFLAG USA_AGENCY USA_ATCF_ID USA_LAT USA_LON USA_RECORD USA_STATUS USA_WIND USA_PRES USA_SSHS USA_R34_NE USA_R34_SE USA_R34_SW USA_R34_NW USA_R50_NE USA_R50_SE USA_R50_SW USA_R50_NW USA_R64_NE USA_R64_SE USA_R64_SW USA_R64_NW USA_POCI USA_ROCI USA_RMW USA_EYE TOKYO_LAT TOKYO_LON TOKYO_GRADE TOKYO_WIND TOKYO_PRES TOKYO_R50_DIR TOKYO_R50_LONG TOKYO_R50_SHORT TOKYO_R30_DIR TOKYO_R30_LONG TOKYO_R30_SHORT TOKYO_LAND CMA_LAT CMA_LON CMA_CAT CMA_WIND CMA_PRES HKO_LAT HKO_LON HKO_CAT HKO_WIND HKO_PRES NEWDELHI_LAT NEWDELHI_LON NEWDELHI_GRADE NEWDELHI_WIND NEWDELHI_PRES NEWDELHI_CI NEWDELHI_DP NEWDELHI_POCI REUNION_LAT REUNION_LON REUNION_TYPE REUNION_WIND REUNION_PRES REUNION_TNUM REUNION_CI REUNION_RMW REUNION_R34_NE REUNION_R34_SE REUNION_R34_SW REUNION_R34_NW REUNION_R50_NE REUNION_R50_SE REUNION_R50_SW REUNION_R50_NW REUNION_R64_NE REUNION_R64_SE REUNION_R64_SW REUNION_R64_NW BOM_LAT BOM_LON BOM_TYPE BOM_WIND BOM_PRES BOM_TNUM BOM_CI BOM_RMW BOM_R34_NE BOM_R34_SE BOM_R34_SW BOM_R34_NW BOM_R50_NE BOM_R50_SE BOM_R50_SW BOM_R50_NW BOM_R64_NE BOM_R64_SE BOM_R64_SW BOM_R64_NW BOM_ROCI BOM_POCI BOM_EYE BOM_POS_METHOD BOM_PRES_METHOD NADI_LAT NADI_LON NADI_CAT NADI_WIND NADI_PRES WELLINGTON_LAT WELLINGTON_LON WELLINGTON_WIND WELLINGTON_PRES DS824_LAT DS824_LON DS824_STAGE DS824_WIND DS824_PRES TD9636_LAT TD9636_LON TD9636_STAGE TD9636_WIND TD9636_PRES TD9635_LAT TD9635_LON TD9635_WIND TD9635_PRES TD9635_ROCI NEUMANN_LAT NEUMANN_LON NEUMANN_CLASS NEUMANN_WIND NEUMANN_PRES MLC_LAT MLC_LON MLC_CLASS MLC_WIND MLC_PRES USA_GUST BOM_GUST BOM_GUST_PER REUNION_GUST REUNION_GUST_PER USA_SEAHGT USA_SEARAD_NE USA_SEARAD_SE USA_SEARAD_SW USA_SEARAD_NW STORM_SPEED STORM_DIR
1922201N14129 1922 36 WP MM NOT_NAMED 1922-07-20 10:00:00 NR 14.1000 129.000 main 434 434 __________O___ -1 14.1000 129.000 2 7 344
1922201N14129 1922 36 WP MM NOT_NAMED 1922-07-20 12:00:00 NR 14.3147 128.930 main 436 436 __________P___ -1 14.3147 128.930 2 7 342
1922201N14129 1922 36 WP MM NOT_NAMED 1922-07-20 15:00:00 NR 14.6250 128.827 main 446 446 __________P___ -1 14.6250 128.827 2 6 341
1922201N14129 1922 36 WP MM NOT_NAMED 1922-07-20 18:00:00 NR 14.9050 128.726 main 459 459 __________P___ -1 14.9050 128.726 2 5 340
1922201N14129 1922 36 WP MM NOT_NAMED 1922-07-20 21:00:00 NR 15.1366 128.630 main 466 466 __________P___ -1 15.1366 128.630 2 5 338
1922201N14129 1922 36 WP MM NOT_NAMED 1922-07-20 22:00:00 NR 15.2000 128.600 main 474 468 __________O___ -1 15.2000 128.600 2 4 332
1922201N14129 1922 36 WP MM NOT_NAMED 1922-07-21 00:00:00 NR 15.3040 128.542 main 468 468 __________P___ -1 15.3040 128.542 2 3 327
1922201N14129 1922 36 WP MM NOT_NAMED 1922-07-21 03:00:00 NR 15.4158 128.460 main 472 462 __________P___ -1 15.4158 128.460 2 2 322
1922201N14129 1922 36 WP MM NOT_NAMED 1922-07-21 06:00:00 NR 15.4968 128.387 main 466 456 __________P___ -1 15.4968 128.387 2 2 318
1922201N14129 1922 36 WP MM NOT_NAMED 1922-07-21 09:00:00 NR 15.5719 128.320 main 460 460 __________P___ -1 15.5719 128.320 2 2 322
1922201N14129 1922 36 WP MM NOT_NAMED 1922-07-21 10:00:00 NR 15.6000 128.300 main 460 460 __________O___ -1 15.6000 128.300 2 2 333
1922201N14129 1922 36 WP MM NOT_NAMED 1922-07-21 12:00:00 NR 15.6776 128.266 main 465 455 __________P___ -1 15.6776 128.266 2 3 338
1922201N14129 1922 36 WP MM NOT_NAMED 1922-07-21 15:00:00 NR 15.8003 128.222 main 460 460 __________P___ -1 15.8003 128.222 2 3 341
1922201N14129 1922 36 WP MM NOT_NAMED 1922-07-21 18:00:00 NR 15.9279 128.177 main 465 461 __________P___ -1 15.9279 128.177 2 3 340
1922201N14129 1922 36 WP MM NOT_NAMED 1922-07-21 21:00:00 NR 16.0571 128.122 main 467 467 __________P___ -1 16.0571 128.122 2 3 338
1922201N14129 1922 36 WP MM NOT_NAMED 1922-07-21 22:00:00 NR 16.1000 128.100 main 467 464 __________O___ -1 16.1000 128.100 2 3 328
1922201N14129 1922 36 WP MM NOT_NAMED 1922-07-22 00:00:00 NR 16.1781 128.042 main 464 462 __________P___ -1 16.1781 128.042 2 3 322
1922201N14129 1922 36 WP MM NOT_NAMED 1922-07-22 03:00:00 NR 16.2951 127.943 main 462 459 __________P___ -1 16.2951 127.943 2 3 320
1922201N14129 1922 36 WP MM NOT_NAMED 1922-07-22 06:00:00 NR 16.4176 127.836 main 459 458 __________P___ -1 16.4176 127.836 2 3 322
1922201N14129 1922 36 WP MM NOT_NAMED 1922-07-22 09:00:00 NR 16.5516 127.732 main 465 465 __________P___ -1 16.5516 127.732 2 3 325
1922201N14129 1922 36 WP MM NOT_NAMED 1922-07-22 10:00:00 NR 16.6000 127.700 main 465 464 __________O___ -1 16.6000 127.700 2 4 333
1922201N14129 1922 36 WP MM NOT_NAMED 1922-07-22 12:00:00 NR 16.7052 127.647 main 464 464 __________P___ -1 16.7052 127.647 2 4 336
1922201N14129 1922 36 WP MM NOT_NAMED 1922-07-22 15:00:00 NR 16.8757 127.574 main 480 472 __________P___ -1 16.8757 127.574 2 4 339
1922201N14129 1922 36 WP MM NOT_NAMED 1922-07-22 18:00:00 NR 17.0558 127.502 main 487 487 __________P___ -1 17.0558 127.502 2 4 339
1922201N14129 1922 36 WP MM NOT_NAMED 1922-07-22 21:00:00 NR 17.2392 127.427 main 488 488 __________P___ -1 17.2392 127.427 2 4 339
1922201N14129 1922 36 WP MM NOT_NAMED 1922-07-22 22:00:00 NR 17.3000 127.400 main 496 496 __________O___ -1 17.3000 127.400 2 4 336
1922201N14129 1922 36 WP MM NOT_NAMED 1922-07-23 00:00:00 NR 17.4193 127.344 main 497 497 __________P___ -1 17.4193 127.344 2 4 335
1922201N14129 1922 36 WP MM NOT_NAMED 1922-07-23 03:00:00 NR 17.5982 127.254 main 514 503 __________P___ -1 17.5982 127.254 2 4 333
1922201N14129 1922 36 WP MM NOT_NAMED 1922-07-23 06:00:00 NR 17.7745 127.154 main 506 487 __________P___ -1 17.7745 127.154 2 4 330
1922201N14129 1922 36 WP MM NOT_NAMED 1922-07-23 09:00:00 NR 17.9450 127.041 main 487 490 __________P___ -1 17.9450 127.041 2 4 327
1922201N14129 1922 36 WP MM NOT_NAMED 1922-07-23 10:00:00 NR 18.0000 127.000 main 490 482 __________O___ -1 18.0000 127.000 2 4 323
1922201N14129 1922 36 WP MM NOT_NAMED 1922-07-23 12:00:00 NR 18.1031 126.917 main 482 475 __________P___ -1 18.1031 126.917 2 4 320
1922201N14129 1922 36 WP MM NOT_NAMED 1922-07-23 15:00:00 NR 18.2513 126.779 main 475 453 __________P___ -1 18.2513 126.779 2 4 317
1922201N14129 1922 36 WP MM NOT_NAMED 1922-07-23 18:00:00 NR 18.3975 126.626 main 453 443 __________P___ -1 18.3975 126.626 2 4 314
1922201N14129 1922 36 WP MM NOT_NAMED 1922-07-23 21:00:00 NR 18.5478 126.459 main 443 432 __________P___ -1 18.5478 126.459 2 4 314
1922201N14129 1922 36 WP MM NOT_NAMED 1922-07-23 22:00:00 NR 18.6000 126.400 main 432 422 __________O___ -1 18.6000 126.400 2 5 313
1922201N14129 1922 36 WP MM NOT_NAMED 1922-07-24 00:00:00 NR 18.7163 126.268 main 423 402 __________P___ -1 18.7163 126.268 2 5 312
1922201N14129 1922 36 WP MM NOT_NAMED 1922-07-24 03:00:00 NR 18.8971 126.056 main 404 376 __________P___ -1 18.8971 126.056 2 5 312
1922201N14129 1922 36 WP MM NOT_NAMED 1922-07-24 06:00:00 NR 19.0772 125.846 main 376 368 __________P___ -1 19.0772 125.846 2 5 313
1922201N14129 1922 36 WP MM NOT_NAMED 1922-07-24 09:00:00 NR 19.2472 125.656 main 368 361 __________P___ -1 19.2472 125.656 2 5 314
1922201N14129 1922 36 WP MM NOT_NAMED 1922-07-24 10:00:00 NR 19.3000 125.600 main 361 354 __________O___ -1 19.3000 125.600 2 4 318
1922201N14129 1922 36 WP MM NOT_NAMED 1922-07-24 12:00:00 NR 19.3946 125.516 main 354 348 __________P___ -1 19.3946 125.516 2 3 322
1922201N14129 1922 36 WP MM NOT_NAMED 1922-07-24 15:00:00 NR 19.5241 125.414 main 348 342 __________P___ -1 19.5241 125.414 2 3 324
1922201N14129 1922 36 WP MM NOT_NAMED 1922-07-24 18:00:00 NR 19.6440 125.327 main 342 337 __________P___ -1 19.6440 125.327 2 3 324
1922201N14129 1922 36 WP MM NOT_NAMED 1922-07-24 21:00:00 NR 19.7607 125.235 main 342 342 __________P___ -1 19.7607 125.235 2 3 322
1922201N14129 1922 36 WP MM NOT_NAMED 1922-07-24 22:00:00 NR 19.8000 125.200 main 342 333 __________O___ -1 19.8000 125.200 2 3 314
1922201N14129 1922 36 WP MM NOT_NAMED 1922-07-25 00:00:00 NR 19.8781 125.106 main 338 329 __________P___ -1 19.8781 125.106 2 4 310
1922201N14129 1922 36 WP MM NOT_NAMED 1922-07-25 03:00:00 NR 19.9952 124.953 main 335 324 __________P___ -1 19.9952 124.953 2 4 309
1922201N14129 1922 36 WP MM NOT_NAMED 1922-07-25 06:00:00 NR 20.1176 124.795 main 324 321 __________P___ -1 20.1176 124.795 2 4 312
1922201N14129 1922 36 WP MM NOT_NAMED 1922-07-25 09:00:00 NR 20.2516 124.646 main 321 321 __________P___ -1 20.2516 124.646 2 4 315
1922201N14129 1922 36 WP MM NOT_NAMED 1922-07-25 10:00:00 NR 20.3000 124.600 main 321 321 __________O___ -1 20.3000 124.600 2 4 321
1922201N14129 1922 36 WP MM NOT_NAMED 1922-07-25 12:00:00 NR 20.4031 124.516 main 321 321 __________P___ -1 20.4031 124.516 2 4 326
1922201N14129 1922 36 WP MM NOT_NAMED 1922-07-25 15:00:00 NR 20.5711 124.408 main 330 330 __________P___ -1 20.5711 124.408 2 4 332
1922201N14129 1922 36 WP MM NOT_NAMED 1922-07-25 18:00:00 NR 20.7508 124.314 main 340 340 __________P___ -1 20.7508 124.314 2 4 335
1922201N14129 1922 36 WP MM NOT_NAMED 1922-07-25 21:00:00 NR 20.9373 124.228 main 343 343 __________P___ -1 20.9373 124.228 2 4 337
1922201N14129 1922 36 WP MM NOT_NAMED 1922-07-25 22:00:00 NR 21.0000 124.200 main 352 __________O___ -1 21.0000 124.200 7 4 336

Digital Typhoon Data and Search

About IBTrACS Database

This database is a web-friendly format of International Best Track Archive for Climate Stewardship (IBTrACS), a global best track data archive curated by NOAA dating back to 1842.

Updated: 2021-12-06